Time;durP1;ratioP1;P1;durP2;ratioP2;P2;SDS_P1;SDS_P2;PMS_P1;PMS_P2;Temp;Humidity;BMP_temperature;BMP_pressure;BME280_temperature;BME280_humidity;BME280_pressure;Samples;Min_cycle;Max_cycle;Signal;HPM_P1;HPM_P2
2022/08/18 00:01:40;;;;;;;8.68;7.40;;;;;;;30.38;39.59;100676.03;5105853;27;98760;-68
2022/08/18 00:04:07;;;;;;;8.60;7.22;;;;;;;30.20;39.63;100672.75;5109524;27;96953;-70
2022/08/18 00:06:34;;;;;;;9.20;7.63;;;;;;;30.16;40.20;100676.88;5105549;27;99284;-67
2022/08/18 00:09:02;;;;;;;8.40;7.38;;;;;;;30.26;39.84;100676.66;5109599;27;101299;-67
2022/08/18 00:11:33;;;;;;;8.35;7.50;;;;;;;30.18;40.01;100673.97;5101917;27;98722;-68
2022/08/18 00:13:59;;;;;;;13.35;8.02;;;;;;;30.35;39.32;100675.53;5101079;27;99040;-68
2022/08/18 00:16:26;;;;;;;9.68;7.97;;;;;;;30.26;39.56;100671.19;5099807;27;99394;-69
2022/08/18 00:18:52;;;;;;;9.77;7.82;;;;;;;30.16;39.78;100676.03;5103233;27;98963;-68
2022/08/18 00:21:19;;;;;;;9.93;7.80;;;;;;;30.16;39.84;100665.13;5101862;27;97952;-69
2022/08/18 00:23:45;;;;;;;9.85;7.60;;;;;;;30.19;39.41;100665.63;5103375;27;96923;-69
2022/08/18 00:26:12;;;;;;;11.25;8.10;;;;;;;30.23;39.17;100672.41;5100091;27;98889;-68
2022/08/18 00:28:40;;;;;;;9.32;7.90;;;;;;;30.31;39.23;100672.34;5100268;27;97406;-68
2022/08/18 00:31:06;;;;;;;10.23;7.88;;;;;;;30.04;39.57;100668.28;5105577;27;97147;-69
2022/08/18 00:33:33;;;;;;;10.77;7.50;;;;;;;30.08;39.71;100661.44;5113003;27;97293;-68
2022/08/18 00:35:59;;;;;;;10.63;7.53;;;;;;;30.04;39.43;100656.53;5105473;27;99077;-68
2022/08/18 00:38:25;;;;;;;10.50;7.60;;;;;;;30.07;39.79;100658.88;5100848;27;99240;-68
2022/08/18 00:40:54;;;;;;;14.32;7.70;;;;;;;30.09;39.60;100648.66;5103639;27;96895;-68
2022/08/18 00:43:26;;;;;;;11.15;7.55;;;;;;;30.01;39.98;100651.44;5111462;27;96933;-68
2022/08/18 00:45:54;;;;;;;18.33;8.25;;;;;;;30.03;39.71;100657.56;5111065;27;102683;-67
2022/08/18 00:48:21;;;;;;;14.20;7.68;;;;;;;30.02;40.32;100658.59;5108913;27;98876;-68
2022/08/18 00:50:51;;;;;;;14.18;7.55;;;;;;;29.80;40.68;100653.97;5111908;27;96866;-67
2022/08/18 00:53:21;;;;;;;9.55;7.43;;;;;;;29.57;41.96;100652.06;5109469;27;98697;-67
2022/08/18 00:55:49;;;;;;;11.98;8.00;;;;;;;29.44;42.32;100653.69;5108551;27;98985;-67
2022/08/18 00:58:20;;;;;;;9.30;7.85;;;;;;;29.49;42.83;100649.38;5111632;27;98856;-68
2022/08/18 01:00:49;;;;;;;9.73;7.53;;;;;;;29.59;42.89;100652.75;5110931;27;96828;-68
2022/08/18 01:03:20;;;;;;;9.20;7.63;;;;;;;29.51;43.37;100647.34;5106532;27;97118;-67
2022/08/18 01:05:53;;;;;;;9.32;7.28;;;;;;;29.47;43.70;100643.28;5106228;27;99187;-67
2022/08/18 01:08:19;;;;;;;9.63;7.70;;;;;;;29.16;44.50;100640.50;5109846;27;99178;-67
2022/08/18 01:10:46;;;;;;;11.65;7.53;;;;;;;29.22;44.54;100638.94;5111351;27;96755;-68
2022/08/18 01:13:12;;;;;;;11.52;7.53;;;;;;;29.25;44.63;100638.63;5110464;27;96952;-67
2022/08/18 01:15:39;;;;;;;10.10;7.43;;;;;;;29.25;44.51;100638.63;5104676;27;98673;-69
2022/08/18 01:23:51;;;;;;;10.27;7.72;;;;;;;28.69;46.31;100643.19;5100974;27;98889;-68
2022/08/18 01:26:18;;;;;;;11.10;7.43;;;;;;;28.47;46.86;100644.78;5098673;27;99371;-69
2022/08/18 01:28:48;;;;;;;10.32;7.53;;;;;;;28.46;46.92;100653.97;5101705;27;99039;-69
2022/08/18 01:31:31;;;;;;;11.40;7.90;;;;;;;28.45;46.77;100651.41;5102173;27;99454;-68
2022/08/18 01:33:58;;;;;;;8.77;7.82;;;;;;;28.41;46.37;100644.63;5101305;27;97071;-69
2022/08/18 01:36:24;;;;;;;9.95;7.75;;;;;;;28.35;46.57;100653.47;5101970;27;100665;-70
2022/08/18 01:38:53;;;;;;;8.48;7.38;;;;;;;28.35;46.51;100650.75;5100197;27;98865;-70
2022/08/18 01:41:22;;;;;;;22.90;8.57;;;;;;;28.40;46.07;100651.09;5101051;27;98554;-69
2022/08/18 01:43:49;;;;;;;10.50;7.47;;;;;;;28.39;46.50;100646.66;5099542;27;97783;-68
2022/08/18 01:46:18;;;;;;;8.73;7.13;;;;;;;28.42;46.44;100635.47;5100401;27;97534;-69
2022/08/18 01:48:45;;;;;;;10.23;8.20;;;;;;;28.39;45.89;100641.22;5100572;27;101105;-68
2022/08/18 01:51:12;;;;;;;9.80;7.20;;;;;;;28.46;45.69;100632.22;5103293;27;97406;-68
2022/08/18 01:53:39;;;;;;;11.70;7.90;;;;;;;28.47;45.88;100638.50;5103505;27;98755;-67
2022/08/18 01:56:08;;;;;;;11.77;7.57;;;;;;;28.64;45.39;100633.88;5103590;27;99012;-67
2022/08/18 01:58:35;;;;;;;9.00;7.22;;;;;;;28.81;44.52;100625.53;5103846;27;98819;-68
2022/08/18 02:01:03;;;;;;;8.57;7.38;;;;;;;28.79;44.05;100624.00;5103501;27;96949;-67
2022/08/18 02:03:34;;;;;;;9.00;7.45;;;;;;;29.02;42.81;100629.53;5104359;27;99644;-67
2022/08/18 02:06:04;;;;;;;10.52;7.55;;;;;;;29.06;41.02;100623.56;5102653;27;100266;-67
2022/08/18 02:08:31;;;;;;;9.95;7.43;;;;;;;29.08;40.53;100617.97;5100762;27;99479;-67
2022/08/18 02:10:58;;;;;;;10.43;8.48;;;;;;;29.13;40.83;100608.25;5105230;27;98885;-67
2022/08/18 02:13:28;;;;;;;11.27;8.13;;;;;;;29.23;40.12;100608.00;5103862;27;98545;-67
2022/08/18 02:15:55;;;;;;;10.25;7.47;;;;;;;29.23;39.71;100606.13;5102336;27;98916;-67
2022/08/18 02:18:24;;;;;;;20.17;8.07;;;;;;;29.07;40.39;100605.38;5102462;27;100602;-68
2022/08/18 02:20:50;;;;;;;14.70;7.35;;;;;;;29.16;39.85;100596.97;5102769;27;96884;-68
2022/08/18 02:23:17;;;;;;;8.50;6.63;;;;;;;29.23;39.47;100599.84;5102974;27;97122;-68
2022/08/18 02:25:43;;;;;;;9.77;7.03;;;;;;;29.20;39.84;100597.50;5102080;27;99300;-68
2022/08/18 02:28:10;;;;;;;11.73;7.97;;;;;;;29.10;40.48;100600.41;5101797;27;101933;-68
2022/08/18 02:30:38;;;;;;;9.75;7.22;;;;;;;28.99;41.15;100605.41;5103080;27;97534;-68
2022/08/18 02:33:04;;;;;;;11.75;7.82;;;;;;;28.89;41.63;100600.16;5103903;27;98674;-68
2022/08/18 02:35:31;;;;;;;11.85;7.22;;;;;;;28.90;41.53;100604.59;5109076;27;101890;-68
2022/08/18 02:37:59;;;;;;;13.55;7.75;;;;;;;29.02;40.76;100599.59;5103263;27;99756;-68
2022/08/18 02:40:26;;;;;;;11.88;8.35;;;;;;;28.84;40.87;100605.28;5103253;27;96896;-68
2022/08/18 02:42:53;;;;;;;11.02;7.78;;;;;;;28.96;40.10;100608.47;5103323;27;97031;-68
2022/08/18 02:45:20;;;;;;;11.18;8.10;;;;;;;29.03;39.67;100609.47;5103522;27;98969;-68
2022/08/18 02:47:53;;;;;;;9.65;7.82;;;;;;;28.88;40.73;100618.34;5104111;27;97730;-68
2022/08/18 02:50:19;;;;;;;7.90;7.10;;;;;;;28.90;40.28;100620.91;5106543;27;98991;-68
2022/08/18 02:52:46;;;;;;;15.10;8.00;;;;;;;28.68;41.62;100624.38;5103481;27;97274;-68
2022/08/18 02:55:13;;;;;;;8.52;7.60;;;;;;;28.84;41.37;100619.75;5102837;27;98684;-68
2022/08/18 02:57:42;;;;;;;8.60;7.60;;;;;;;28.80;41.24;100612.13;5104572;27;99128;-68
2022/08/18 03:00:11;;;;;;;11.15;7.65;;;;;;;28.97;40.80;100615.59;5104330;27;98405;-67
2022/08/18 03:02:38;;;;;;;9.43;7.63;;;;;;;28.83;40.96;100607.16;5104413;27;98423;-68
2022/08/18 03:05:07;;;;;;;13.88;8.02;;;;;;;28.79;41.14;100611.25;5107669;27;99635;-68
2022/08/18 03:07:33;;;;;;;16.73;8.30;;;;;;;28.89;40.60;100611.03;5100156;27;98823;-67
2022/08/18 03:09:59;;;;;;;8.88;7.63;;;;;;;28.85;40.97;100605.13;5102355;27;98721;-67
2022/08/18 03:12:26;;;;;;;14.07;8.00;;;;;;;28.75;41.42;100617.25;5102735;27;97526;-67
2022/08/18 03:14:52;;;;;;;10.23;8.00;;;;;;;28.57;42.06;100617.41;5102763;27;99835;-68
2022/08/18 03:17:19;;;;;;;11.25;7.68;;;;;;;28.59;42.61;100619.97;5101227;27;98823;-67
2022/08/18 03:19:45;;;;;;;15.73;7.90;;;;;;;28.14;43.91;100619.53;5104156;27;97526;-68
2022/08/18 03:22:13;;;;;;;12.52;8.10;;;;;;;28.26;43.87;100614.59;5103067;27;97232;-70
2022/08/18 03:24:40;;;;;;;12.65;8.35;;;;;;;28.22;43.37;100615.09;5102635;27;99408;-67
2022/08/18 03:27:07;;;;;;;12.35;7.97;;;;;;;28.10;43.46;100615.41;5102113;27;98769;-67
2022/08/18 03:29:36;;;;;;;12.32;8.32;;;;;;;28.38;43.03;100628.66;5101443;27;98718;-68
2022/08/18 03:32:05;;;;;;;9.23;7.95;;;;;;;28.37;42.58;100614.22;5102268;27;96875;-68
2022/08/18 03:34:32;;;;;;;16.85;8.27;;;;;;;28.38;42.26;100620.50;5109278;27;98963;-68
2022/08/18 03:36:59;;;;;;;11.93;8.38;;;;;;;28.54;41.85;100617.78;5103888;27;98221;-67
2022/08/18 03:39:27;;;;;;;9.57;8.32;;;;;;;28.36;42.19;100611.66;5102528;27;97794;-67
2022/08/18 03:41:56;;;;;;;13.07;8.38;;;;;;;28.56;41.58;100612.97;5103701;27;98621;-67
2022/08/18 03:44:23;;;;;;;14.82;8.45;;;;;;;28.47;41.94;100619.47;5100534;27;102463;-68
2022/08/18 03:46:51;;;;;;;13.98;8.02;;;;;;;28.32;42.38;100619.31;5101515;27;98908;-67
2022/08/18 03:49:19;;;;;;;12.77;8.43;;;;;;;28.21;43.52;100616.97;5101746;27;97083;-67
2022/08/18 03:51:46;;;;;;;14.43;9.23;;;;;;;28.12;43.81;100616.09;5104367;27;97165;-67
2022/08/18 03:54:14;;;;;;;15.48;8.30;;;;;;;27.98;43.90;100632.22;5100326;27;99174;-67
2022/08/18 03:56:43;;;;;;;12.88;7.72;;;;;;;27.95;44.51;100633.41;5104740;27;98901;-69
2022/08/18 03:59:14;;;;;;;12.30;8.32;;;;;;;27.88;45.01;100626.09;5101432;27;96932;-69
2022/08/18 04:01:42;;;;;;;11.45;8.60;;;;;;;27.85;44.67;100627.28;5102007;27;97868;-68
2022/08/18 04:04:10;;;;;;;12.52;8.55;;;;;;;27.91;45.00;100628.47;5107170;27;99500;-68
2022/08/18 04:06:40;;;;;;;12.18;8.70;;;;;;;27.88;44.75;100629.69;5100055;27;98709;-68
2022/08/18 04:09:10;;;;;;;14.15;8.50;;;;;;;27.88;44.57;100632.38;5100928;27;96962;-68
2022/08/18 04:11:38;;;;;;;12.85;8.35;;;;;;;28.06;44.02;100640.38;5104342;27;97695;-68
2022/08/18 04:14:06;;;;;;;11.77;8.60;;;;;;;28.04;43.45;100631.53;5106554;27;99040;-68
2022/08/18 04:16:33;;;;;;;14.23;9.35;;;;;;;27.84;43.68;100638.31;5099493;27;99245;-69
2022/08/18 04:19:01;;;;;;;13.90;9.35;;;;;;;28.23;43.20;100635.78;5099652;27;98877;-70
2022/08/18 04:21:30;;;;;;;13.65;9.32;;;;;;;28.05;43.11;100639.50;5103970;27;98051;-68
2022/08/18 04:23:58;;;;;;;11.60;8.35;;;;;;;28.22;42.93;100648.56;5100522;27;99217;-70
2022/08/18 04:26:25;;;;;;;14.55;8.60;;;;;;;28.08;43.70;100652.78;5102631;27;99168;-69
2022/08/18 04:28:51;;;;;;;16.25;8.55;;;;;;;28.23;43.40;100641.22;5105054;27;97158;-68
2022/08/18 04:31:23;;;;;;;13.02;9.25;;;;;;;28.27;43.48;100643.44;5105078;27;98483;-68
2022/08/18 04:33:49;;;;;;;19.42;9.80;;;;;;;28.45;42.89;100641.38;5103371;27;99125;-68
2022/08/18 04:36:16;;;;;;;15.60;9.25;;;;;;;28.64;42.26;100639.31;5104233;27;99125;-69
2022/08/18 04:38:43;;;;;;;15.93;9.50;;;;;;;28.43;43.39;100639.84;5100615;27;97531;-69
2022/08/18 04:41:12;;;;;;;15.05;10.70;;;;;;;28.44;43.36;100638.84;5101381;27;97261;-67
2022/08/18 04:43:39;;;;;;;15.43;9.25;;;;;;;28.28;44.31;100636.16;5100229;27;99214;-69
2022/08/18 04:46:06;;;;;;;16.80;8.70;;;;;;;28.35;43.78;100643.44;5101714;27;101496;-68
2022/08/18 04:48:35;;;;;;;13.43;9.70;;;;;;;28.27;44.22;100648.03;5102024;27;98793;-67
2022/08/18 04:51:07;;;;;;;12.13;8.40;;;;;;;28.16;44.83;100643.78;5102038;27;97609;-67
2022/08/18 04:53:45;;;;;;;12.95;8.52;;;;;;;28.37;44.00;100644.09;5101494;27;101053;-67
2022/08/18 04:56:16;;;;;;;14.65;10.07;;;;;;;28.37;44.16;100645.97;5101216;27;97728;-68
2022/08/18 04:58:43;;;;;;;17.95;9.85;;;;;;;28.41;44.48;100647.34;5100244;27;97278;-67
2022/08/18 05:01:09;;;;;;;16.92;9.70;;;;;;;28.47;44.21;100642.06;5100268;27;99379;-68
2022/08/18 05:03:37;;;;;;;13.07;9.10;;;;;;;28.70;43.49;100653.06;5110228;27;96945;-67
2022/08/18 05:06:06;;;;;;;15.73;9.80;;;;;;;28.75;43.60;100653.41;5105279;27;98735;-68
2022/08/18 05:08:32;;;;;;;18.88;9.38;;;;;;;28.69;43.59;100655.94;5104544;27;97484;-68
2022/08/18 05:10:59;;;;;;;14.60;9.27;;;;;;;28.59;43.36;100650.72;5101817;27;97485;-69
2022/08/18 05:13:25;;;;;;;18.15;10.23;;;;;;;28.75;43.39;100658.03;5102171;27;98311;-69
2022/08/18 05:15:56;;;;;;;15.93;9.05;;;;;;;28.91;42.97;100658.81;5102686;27;98963;-68
2022/08/18 05:18:24;;;;;;;9.60;8.60;;;;;;;28.91;42.76;100658.81;5100297;27;99115;-68
2022/08/18 05:20:53;;;;;;;14.43;9.13;;;;;;;28.93;42.48;100667.66;5103285;27;97864;-69
2022/08/18 05:23:20;;;;;;;14.90;9.20;;;;;;;28.96;42.42;100661.00;5100819;27;100575;-68
2022/08/18 05:25:47;;;;;;;20.17;11.73;;;;;;;29.00;42.84;100670.53;5102656;27;100125;-68
2022/08/18 05:28:14;;;;;;;13.25;9.90;;;;;;;29.04;42.59;100669.13;5104425;27;98797;-69
2022/08/18 05:30:44;;;;;;;15.57;9.95;;;;;;;29.19;42.21;100669.25;5106229;27;97051;-69
2022/08/18 05:33:10;;;;;;;14.60;10.13;;;;;;;29.32;41.66;100667.66;5109161;27;100224;-69
2022/08/18 05:35:42;;;;;;;12.73;9.13;;;;;;;29.21;41.80;100668.03;5110111;27;99167;-69
2022/08/18 05:38:35;;;;;;;14.18;9.27;;;;;;;29.33;42.01;100676.69;5104136;27;96979;-69
2022/08/18 05:41:07;;;;;;;13.45;9.35;;;;;;;29.40;41.45;100668.69;5103844;27;97819;-68
2022/08/18 05:43:36;;;;;;;13.70;10.05;;;;;;;29.52;41.25;100667.25;5102068;27;99652;-68
2022/08/18 05:46:05;;;;;;;21.08;13.65;;;;;;;29.46;41.55;100670.69;5103150;27;99172;-68
2022/08/18 05:48:32;;;;;;;13.25;11.10;;;;;;;29.64;41.46;100669.41;5104274;27;97275;-69
2022/08/18 05:51:07;;;;;;;60.35;10.85;;;;;;;29.66;41.65;100675.50;5104613;27;98947;-68
2022/08/18 05:59:10;;;;;;;16.30;9.57;;;;;;;29.87;41.96;100674.00;5103284;27;97975;-68
2022/08/18 06:01:42;;;;;;;15.95;9.90;;;;;;;30.00;42.31;100680.56;5106419;27;96959;-69
2022/08/18 06:04:20;;;;;;;14.07;8.88;;;;;;;29.97;42.17;100682.81;5107046;27;98936;-68
2022/08/18 06:06:48;;;;;;;15.85;9.55;;;;;;;30.07;41.71;100677.97;5103557;27;98935;-68
2022/08/18 06:09:21;;;;;;;16.65;9.43;;;;;;;29.97;41.63;100682.81;5104699;27;98875;-68
2022/08/18 06:11:48;;;;;;;15.93;9.75;;;;;;;29.93;40.72;100695.94;5105661;27;98694;-68
2022/08/18 06:14:15;;;;;;;14.40;9.23;;;;;;;30.11;40.06;100703.84;5103945;27;99319;-68
2022/08/18 06:16:54;;;;;;;18.20;9.68;;;;;;;29.95;39.03;100707.50;5104089;27;98854;-68
2022/08/18 06:19:36;;;;;;;24.75;10.27;;;;;;;30.33;37.90;100705.69;5103681;27;98599;-69
2022/08/18 06:22:13;;;;;;;17.77;9.55;;;;;;;30.56;38.12;100702.13;5102389;27;96812;-68
2022/08/18 06:24:49;;;;;;;24.30;9.70;;;;;;;30.79;37.70;100694.72;5102898;27;98102;-69
2022/08/18 06:27:24;;;;;;;18.67;10.13;;;;;;;30.91;36.95;100700.59;5100521;27;97677;-69
2022/08/18 06:30:04;;;;;;;15.38;9.77;;;;;;;31.35;36.46;100701.44;5101808;27;97824;-69
2022/08/18 06:32:46;;;;;;;22.10;10.15;;;;;;;31.43;35.77;100692.31;5097558;27;98077;-68
2022/08/18 06:35:18;;;;;;;20.88;9.63;;;;;;;31.33;35.97;100686.28;5108074;27;99632;-68
2022/08/18 06:40:48;;;;;;;11.00;8.88;;;;;;;31.49;35.19;100700.56;5100803;27;98803;-68
2022/08/18 06:43:16;;;;;;;13.38;9.07;;;;;;;31.09;35.99;100701.09;5103532;27;98849;-68
2022/08/18 06:45:50;;;;;;;15.95;9.68;;;;;;;31.06;35.89;100695.97;5103456;27;99165;-68
2022/08/18 06:48:25;;;;;;;38.95;10.93;;;;;;;31.38;36.32;100694.72;5103106;27;101245;-67
2022/08/18 06:50:55;;;;;;;17.50;9.75;;;;;;;31.12;36.40;100692.50;5103118;27;97410;-68
2022/08/18 06:53:22;;;;;;;14.35;9.00;;;;;;;31.08;36.95;100704.84;5101879;27;97565;-69
2022/08/18 06:55:51;;;;;;;18.88;9.75;;;;;;;31.26;36.73;100708.88;5105271;27;98170;-69
2022/08/18 06:58:28;;;;;;;22.77;9.85;;;;;;;31.34;36.27;100699.75;5104234;27;102164;-69
2022/08/18 07:00:58;;;;;;;13.05;9.90;;;;;;;31.39;36.72;100701.88;5103656;27;98936;-68
2022/08/18 07:03:42;;;;;;;14.25;9.30;;;;;;;31.35;36.55;100700.59;5110332;27;97153;-70
2022/08/18 07:06:10;;;;;;;11.43;9.57;;;;;;;31.58;36.66;100702.13;5103398;27;98793;-70
2022/08/18 07:08:40;;;;;;;16.90;9.05;;;;;;;31.77;35.99;100706.16;5103022;27;100703;-68
2022/08/18 07:11:18;;;;;;;14.13;10.07;;;;;;;31.50;36.14;100698.69;5107297;27;96931;-67
2022/08/18 07:13:47;;;;;;;18.08;10.57;;;;;;;31.70;36.06;100702.53;5104065;27;98583;-68
2022/08/18 07:16:22;;;;;;;16.55;9.35;;;;;;;32.00;34.83;100701.41;5105824;27;98157;-69
2022/08/18 07:18:50;;;;;;;15.48;9.32;;;;;;;31.93;36.06;100699.63;5100739;27;99216;-68
2022/08/18 07:21:25;;;;;;;16.42;8.88;;;;;;;31.87;34.80;100695.78;5100903;27;98791;-68
2022/08/18 07:24:00;;;;;;;26.23;9.97;;;;;;;31.71;35.07;100696.00;5101548;27;97243;-68
2022/08/18 07:26:28;;;;;;;22.60;10.13;;;;;;;31.99;34.36;100696.97;5103501;27;99972;-69
2022/08/18 07:28:55;;;;;;;22.00;12.88;;;;;;;31.89;34.43;100699.19;5103519;27;99215;-69
2022/08/18 07:31:42;;;;;;;14.07;10.05;;;;;;;31.82;34.29;100697.41;5103469;27;97689;-68
2022/08/18 07:34:13;;;;;;;14.85;9.73;;;;;;;31.83;34.58;100701.84;5102113;27;97625;-70
2022/08/18 07:36:46;;;;;;;19.52;10.30;;;;;;;31.86;34.76;100695.97;5104628;27;99044;-69
2022/08/18 07:39:21;;;;;;;17.45;9.57;;;;;;;32.09;34.23;100702.13;5101685;27;99221;-68
2022/08/18 07:41:56;;;;;;;15.30;9.40;;;;;;;32.41;34.17;100708.97;5106499;27;96941;-69
2022/08/18 07:44:36;;;;;;;16.85;9.48;;;;;;;32.23;34.27;100705.88;5110290;27;97717;-69
2022/08/18 07:47:06;;;;;;;15.50;9.68;;;;;;;32.25;34.30;100707.34;5111134;27;101345;-70
2022/08/18 07:49:36;;;;;;;17.52;10.60;;;;;;;32.19;33.53;100699.94;5112527;27;97650;-68
2022/08/18 07:52:07;;;;;;;13.10;9.32;;;;;;;32.48;33.94;100712.59;5106873;27;100577;-69
2022/08/18 07:54:50;;;;;;;17.42;9.43;;;;;;;32.50;33.97;100713.22;5110138;27;97207;-70
2022/08/18 07:57:27;;;;;;;21.55;10.45;;;;;;;32.47;33.78;100713.66;5105327;27;99110;-68
2022/08/18 08:00:03;;;;;;;15.00;9.57;;;;;;;32.70;33.17;100714.28;5112683;27;97303;-70
2022/08/18 08:02:40;;;;;;;18.08;10.43;;;;;;;32.51;32.92;100711.34;5099679;27;97296;-69
2022/08/18 08:05:17;;;;;;;15.50;10.82;;;;;;;32.72;32.63;100720.41;5111527;27;96993;-69
2022/08/18 08:07:50;;;;;;;22.52;10.95;;;;;;;32.75;32.73;100730.97;5105884;27;99503;-69
2022/08/18 08:10:34;;;;;;;15.90;8.90;;;;;;;32.90;32.88;100727.25;5108226;27;97723;-69
2022/08/18 08:13:13;;;;;;;16.00;10.18;;;;;;;32.62;33.65;100728.09;5108020;27;97280;-68
2022/08/18 08:15:53;;;;;;;15.13;10.25;;;;;;;32.66;34.20;100734.84;5111089;27;96929;-69
2022/08/18 08:18:29;;;;;;;13.13;9.75;;;;;;;32.55;34.32;100737.28;5106391;27;99110;-70
2022/08/18 08:20:58;;;;;;;16.45;11.57;;;;;;;33.07;33.72;100734.13;5107720;27;98613;-69
2022/08/18 08:23:37;;;;;;;13.32;10.23;;;;;;;33.10;33.77;100730.97;5107985;27;96876;-70
2022/08/18 08:26:30;;;;;;;16.23;12.10;;;;;;;33.08;32.94;100730.34;5107563;27;97939;-69
2022/08/18 08:29:10;;;;;;;18.80;10.48;;;;;;;33.25;32.94;100726.25;5108848;27;97725;-70
2022/08/18 08:31:48;;;;;;;17.77;10.05;;;;;;;33.13;32.46;100736.06;5104416;27;98965;-70
2022/08/18 08:34:21;;;;;;;15.82;10.00;;;;;;;33.26;32.43;100729.84;5105513;27;96996;-69
2022/08/18 08:36:48;;;;;;;18.88;10.60;;;;;;;33.30;32.50;100737.44;5107456;27;97275;-69
2022/08/18 08:39:21;;;;;;;18.15;10.02;;;;;;;33.10;32.50;100730.97;5110290;27;99202;-68
2022/08/18 08:41:53;;;;;;;18.90;10.38;;;;;;;32.88;32.95;100740.31;5106021;27;97683;-73
2022/08/18 08:44:27;;;;;;;18.20;10.73;;;;;;;33.37;32.75;100732.84;5106701;27;97866;-68
2022/08/18 08:46:58;;;;;;;21.45;9.75;;;;;;;33.46;32.40;100734.38;5111164;27;97380;-69
2022/08/18 08:49:35;;;;;;;15.68;10.45;;;;;;;33.70;32.57;100729.41;5107493;27;98991;-68
2022/08/18 08:52:10;;;;;;;18.35;10.65;;;;;;;33.81;32.43;100724.19;5109732;27;98143;-67
2022/08/18 08:54:43;;;;;;;18.67;9.73;;;;;;;33.89;32.23;100729.50;5107874;27;96777;-67
2022/08/18 08:57:12;;;;;;;19.20;11.07;;;;;;;33.77;32.14;100722.09;5110049;27;97728;-68
2022/08/18 08:59:42;;;;;;;16.70;11.35;;;;;;;34.06;32.05;100732.72;5106899;27;98167;-68
2022/08/18 09:02:45;;;;;;;31.08;11.25;;;;;;;34.07;32.23;100728.09;5106192;27;99529;-68
2022/08/18 09:05:18;;;;;;;25.27;11.20;;;;;;;34.03;31.70;100721.31;5060247;27;98052;-69
2022/08/18 09:08:12;;;;;;;24.00;10.98;;;;;;;34.28;31.18;100719.69;5108112;27;98204;-68
2022/08/18 09:11:13;;;;;;;25.92;10.70;;;;;;;34.44;31.55;100715.69;5096616;27;100532;-68
2022/08/18 09:14:07;;;;;;;17.75;10.18;;;;;;;34.63;30.92;100712.09;5107581;27;99195;-69
2022/08/18 09:16:47;;;;;;;24.08;9.77;;;;;;;34.45;31.40;100711.91;5109763;27;97380;-68
2022/08/18 09:19:40;;;;;;;17.35;9.43;;;;;;;34.03;31.49;100704.88;5110783;27;97709;-68
2022/08/18 09:22:15;;;;;;;24.63;10.73;;;;;;;34.43;31.77;100700.28;5108543;27;99070;-68
2022/08/18 09:24:47;;;;;;;18.08;11.15;;;;;;;34.75;31.12;100704.94;5105518;27;98464;-67
2022/08/18 09:27:25;;;;;;;17.67;10.73;;;;;;;34.89;30.66;100697.53;5107578;27;97510;-67
2022/08/18 09:29:54;;;;;;;17.95;9.75;;;;;;;35.08;30.61;100696.66;5107941;27;97247;-68
2022/08/18 09:32:44;;;;;;;22.02;10.65;;;;;;;35.27;29.76;100692.19;5108829;27;98720;-68
2022/08/18 09:35:24;;;;;;;17.33;9.88;;;;;;;35.07;29.84;100693.06;5110508;27;99206;-69
2022/08/18 09:43:36;;;;;;;18.20;10.80;;;;;;;35.37;29.75;100690.69;5107119;27;97232;-67
2022/08/18 09:46:06;;;;;;;25.23;9.80;;;;;;;35.25;29.66;100695.13;5108006;27;100796;-69
2022/08/18 09:48:35;;;;;;;14.05;10.57;;;;;;;35.08;29.85;100689.25;5109147;27;96933;-68
2022/08/18 09:51:23;;;;;;;15.98;9.90;;;;;;;35.41;28.64;100693.81;5109704;27;97334;-69
2022/08/18 09:54:06;;;;;;;19.48;10.95;;;;;;;35.53;28.68;100686.59;5106315;27;98999;-69
2022/08/18 09:57:05;;;;;;;14.93;10.13;;;;;;;35.71;28.78;100683.97;5109887;27;99191;-69
2022/08/18 09:59:56;;;;;;;13.93;9.68;;;;;;;35.96;28.22;100684.06;5098534;27;97252;-67
2022/08/18 10:03:09;;;;;;;14.07;9.02;;;;;;;35.88;28.51;100679.66;5109196;27;97163;-68
2022/08/18 10:05:37;;;;;;;15.75;9.93;;;;;;;36.08;28.44;100681.44;5109688;27;99084;-67
2022/08/18 10:08:35;;;;;;;41.83;11.57;;;;;;;35.51;29.17;100683.22;5106369;27;97606;-67
2022/08/18 10:11:20;;;;;;;19.58;11.13;;;;;;;35.41;29.01;100671.84;5106802;27;97338;-67
2022/08/18 10:13:55;;;;;;;16.25;9.70;;;;;;;35.80;28.71;100665.31;5113692;27;97334;-68
2022/08/18 10:16:32;;;;;;;15.00;9.10;;;;;;;35.96;28.90;100659.31;5113670;27;102031;-70
2022/08/18 10:19:13;;;;;;;19.95;9.82;;;;;;;36.31;28.31;100659.69;5114230;27;97537;-68
2022/08/18 10:22:05;;;;;;;16.05;10.05;;;;;;;36.22;27.78;100653.66;5113612;27;98079;-68
2022/08/18 10:24:36;;;;;;;18.13;10.35;;;;;;;36.00;28.00;100665.19;5108748;27;97838;-68
2022/08/18 10:27:21;;;;;;;26.90;9.95;;;;;;;36.04;27.71;100661.78;5113793;27;100905;-68
2022/08/18 10:29:55;;;;;;;16.85;9.82;;;;;;;35.99;28.02;100672.59;5111169;27;102271;-67
2022/08/18 10:32:46;;;;;;;13.15;8.55;;;;;;;35.80;27.94;100671.66;5112901;27;97241;-68
2022/08/18 10:35:51;;;;;;;17.40;9.38;;;;;;;35.51;28.44;100673.06;5112815;27;97133;-69
2022/08/18 10:38:26;;;;;;;13.95;8.85;;;;;;;35.60;28.74;100665.41;5111023;27;99561;-69
2022/08/18 10:41:05;;;;;;;19.48;11.50;;;;;;;35.69;28.17;100669.63;5112482;27;101375;-68
2022/08/18 10:43:43;;;;;;;19.48;10.13;;;;;;;35.97;27.79;100666.50;5112777;27;96945;-68
2022/08/18 10:46:18;;;;;;;26.35;9.23;;;;;;;35.91;28.22;100672.84;5115278;27;98088;-69
2022/08/18 10:48:56;;;;;;;16.17;9.00;;;;;;;36.06;27.71;100656.06;5111680;27;99551;-69
2022/08/18 10:51:35;;;;;;;12.70;9.05;;;;;;;36.29;26.95;100667.34;5110925;27;97789;-69
2022/08/18 10:54:14;;;;;;;17.77;9.32;;;;;;;36.34;27.27;100667.50;5111742;27;96937;-68
2022/08/18 10:56:44;;;;;;;18.05;9.38;;;;;;;36.28;26.91;100663.75;5112321;27;96827;-69
2022/08/18 10:59:21;;;;;;;20.58;9.02;;;;;;;35.69;27.80;100658.63;5114128;27;100121;-69
2022/08/18 11:02:09;;;;;;;17.33;8.70;;;;;;;35.67;27.66;100660.72;5112143;27;97554;-69
2022/08/18 11:04:43;;;;;;;17.58;9.50;;;;;;;35.64;28.01;100655.69;5112495;27;98139;-68
2022/08/18 11:07:13;;;;;;;14.45;8.85;;;;;;;35.84;27.14;100656.41;5111498;27;96846;-68
2022/08/18 11:09:43;;;;;;;18.17;8.48;;;;;;;35.72;27.07;100646.34;5111572;27;100023;-68
2022/08/18 11:12:13;;;;;;;15.32;8.23;;;;;;;35.72;27.08;100638.09;5111782;27;100269;-69
2022/08/18 11:15:16;;;;;;;11.00;7.82;;;;;;;36.10;26.66;100644.41;5108264;27;97039;-68
2022/08/18 11:17:54;;;;;;;12.88;7.57;;;;;;;35.89;26.31;100636.53;5113104;27;96861;-67
2022/08/18 11:20:27;;;;;;;18.80;7.80;;;;;;;36.24;25.98;100645.16;5110008;27;99347;-69
2022/08/18 11:22:57;;;;;;;10.25;7.25;;;;;;;36.60;25.31;100644.41;5102127;27;98759;-70
2022/08/18 11:25:28;;;;;;;12.80;7.45;;;;;;;36.63;25.79;100639.28;5110067;27;98370;-70
2022/08/18 11:27:56;;;;;;;13.60;7.68;;;;;;;36.72;25.88;100634.34;5106549;27;96830;-70
2022/08/18 11:30:26;;;;;;;18.48;7.28;;;;;;;36.79;25.98;100637.03;5110705;27;103102;-70
2022/08/18 11:32:53;;;;;;;13.10;7.63;;;;;;;36.92;25.64;100632.22;5108771;27;100643;-70
2022/08/18 11:35:23;;;;;;;11.13;6.78;;;;;;;36.79;25.91;100643.38;5106107;27;96856;-69
2022/08/18 11:37:56;;;;;;;15.15;7.60;;;;;;;36.72;24.95;100626.94;5108480;27;98149;-70
2022/08/18 11:40:34;;;;;;;14.07;7.72;;;;;;;36.82;25.45;100636.59;5111298;27;99283;-68
2022/08/18 11:43:03;;;;;;;18.02;7.43;;;;;;;36.62;25.60;100647.78;5110283;27;98684;-70
2022/08/18 11:45:36;;;;;;;12.60;8.70;;;;;;;36.71;26.10;100639.03;5112277;27;97194;-70
2022/08/18 11:48:18;;;;;;;13.50;7.38;;;;;;;36.60;25.26;100641.66;5110666;27;97049;-69
2022/08/18 11:50:48;;;;;;;11.40;6.60;;;;;;;36.60;25.02;100637.00;5109856;27;98858;-69
2022/08/18 11:53:22;;;;;;;7.43;6.63;;;;;;;36.70;24.75;100628.22;5109113;27;98745;-69
2022/08/18 11:56:07;;;;;;;9.02;7.38;;;;;;;36.56;24.68;100621.16;5111148;27;97608;-69
2022/08/18 11:58:44;;;;;;;12.48;6.45;;;;;;;36.57;24.84;100618.16;5109566;27;97215;-70
2022/08/18 12:01:29;;;;;;;17.38;6.82;;;;;;;36.46;23.98;100626.34;5107788;27;99391;-69